Terminal Aerodrome Forecast
Issued by NWS

Home | Current Version | Previous Version | Text Only | Print | Product List | Glossary On
Versions: 1 2 3 4 5 6 7 8 9 10 11 12 13 14 15 16 17 18 19 20 21 22 23
569
FTUS43 KAPX 221929 AAD
TAFTVC
TAF AMD
KTVC 221929Z 2219/2318 VRB03KT P6SM SCT006 OVC015
     FM230000 00000KT 2SM BR OVC003
     FM230600 00000KT 3/4SM -DZ BR OVC003
     FM230900 VRB03KT 1/4SM -DZ FG OVC003
     FM231200 02005KT 1/4SM FG OVC003
     FM231500 04004KT 3/4SM BR OVC003=

USA.gov is the U.S. government's official web portal to all federal, state and local government web resources and services.